sensor_id;sensor_type;location;lat;lon;timestamp;P1;durP1;ratioP1;P2;durP2;ratioP2
4889;SDS011;2459;42.268;23.112;2022-08-01T00:02:13;16.33;;;10.90;;
4889;SDS011;2459;42.268;23.112;2022-08-01T00:04:40;11.57;;;10.37;;
4889;SDS011;2459;42.268;23.112;2022-08-01T00:07:07;10.50;;;9.40;;
4889;SDS011;2459;42.268;23.112;2022-08-01T00:09:36;10.50;;;9.40;;
4889;SDS011;2459;42.268;23.112;2022-08-01T00:12:03;11.17;;;10.03;;
4889;SDS011;2459;42.268;23.112;2022-08-01T00:14:31;12.13;;;10.07;;
4889;SDS011;2459;42.268;23.112;2022-08-01T00:16:57;11.47;;;9.90;;
4889;SDS011;2459;42.268;23.112;2022-08-01T00:19:24;12.93;;;10.73;;
4889;SDS011;2459;42.268;23.112;2022-08-01T00:21:51;12.27;;;11.07;;
4889;SDS011;2459;42.268;23.112;2022-08-01T00:24:18;17.13;;;12.53;;
4889;SDS011;2459;42.268;23.112;2022-08-01T00:26:47;17.60;;;10.87;;
4889;SDS011;2459;42.268;23.112;2022-08-01T00:29:14;10.90;;;8.33;;
4889;SDS011;2459;42.268;23.112;2022-08-01T00:31:40;11.67;;;8.93;;
4889;SDS011;2459;42.268;23.112;2022-08-01T00:34:07;11.03;;;9.17;;
4889;SDS011;2459;42.268;23.112;2022-08-01T00:36:34;12.80;;;6.60;;
4889;SDS011;2459;42.268;23.112;2022-08-01T00:39:01;8.80;;;7.40;;
4889;SDS011;2459;42.268;23.112;2022-08-01T00:41:28;7.50;;;6.63;;
4889;SDS011;2459;42.268;23.112;2022-08-01T00:43:56;10.10;;;6.43;;
4889;SDS011;2459;42.268;23.112;2022-08-01T00:46:22;8.03;;;6.73;;
4889;SDS011;2459;42.268;23.112;2022-08-01T00:48:49;6.83;;;5.90;;
4889;SDS011;2459;42.268;23.112;2022-08-01T00:51:16;7.97;;;6.13;;
4889;SDS011;2459;42.268;23.112;2022-08-01T00:53:43;8.50;;;6.57;;
4889;SDS011;2459;42.268;23.112;2022-08-01T00:56:10;8.57;;;7.50;;
4889;SDS011;2459;42.268;23.112;2022-08-01T00:58:37;11.00;;;7.77;;
4889;SDS011;2459;42.268;23.112;2022-08-01T01:01:05;12.00;;;7.20;;
4889;SDS011;2459;42.268;23.112;2022-08-01T01:03:32;6.73;;;6.00;;
4889;SDS011;2459;42.268;23.112;2022-08-01T01:06:05;7.47;;;6.37;;
4889;SDS011;2459;42.268;23.112;2022-08-01T01:08:39;9.67;;;6.87;;
4889;SDS011;2459;42.268;23.112;2022-08-01T01:11:09;7.60;;;6.47;;
4889;SDS011;2459;42.268;23.112;2022-08-01T01:13:41;7.97;;;6.07;;
4889;SDS011;2459;42.268;23.112;2022-08-01T01:16:12;9.67;;;7.40;;
4889;SDS011;2459;42.268;23.112;2022-08-01T01:18:42;9.40;;;7.40;;
4889;SDS011;2459;42.268;23.112;2022-08-01T01:21:13;7.70;;;6.93;;
4889;SDS011;2459;42.268;23.112;2022-08-01T01:24:09;8.77;;;7.57;;
4889;SDS011;2459;42.268;23.112;2022-08-01T01:26:52;11.90;;;7.00;;
4889;SDS011;2459;42.268;23.112;2022-08-01T01:29:25;7.53;;;6.63;;
4889;SDS011;2459;42.268;23.112;2022-08-01T01:31:57;14.40;;;6.97;;
4889;SDS011;2459;42.268;23.112;2022-08-01T01:34:27;13.60;;;7.87;;
4889;SDS011;2459;42.268;23.112;2022-08-01T01:36:54;14.60;;;9.40;;
4889;SDS011;2459;42.268;23.112;2022-08-01T01:39:23;12.60;;;8.17;;
4889;SDS011;2459;42.268;23.112;2022-08-01T01:41:50;11.67;;;8.60;;
4889;SDS011;2459;42.268;23.112;2022-08-01T01:44:19;12.53;;;7.70;;
4889;SDS011;2459;42.268;23.112;2022-08-01T01:46:48;10.03;;;6.93;;
4889;SDS011;2459;42.268;23.112;2022-08-01T01:49:16;9.80;;;7.40;;
4889;SDS011;2459;42.268;23.112;2022-08-01T01:51:46;8.47;;;6.23;;
4889;SDS011;2459;42.268;23.112;2022-08-01T01:54:13;11.97;;;6.87;;
4889;SDS011;2459;42.268;23.112;2022-08-01T01:56:40;11.00;;;7.37;;
4889;SDS011;2459;42.268;23.112;2022-08-01T01:59:15;13.17;;;7.73;;
4889;SDS011;2459;42.268;23.112;2022-08-01T02:01:45;11.70;;;7.17;;
4889;SDS011;2459;42.268;23.112;2022-08-01T02:04:14;9.93;;;6.97;;
4889;SDS011;2459;42.268;23.112;2022-08-01T02:06:42;8.00;;;6.40;;
4889;SDS011;2459;42.268;23.112;2022-08-01T02:09:10;7.80;;;6.33;;
4889;SDS011;2459;42.268;23.112;2022-08-01T02:11:37;8.43;;;6.50;;
4889;SDS011;2459;42.268;23.112;2022-08-01T02:14:04;15.20;;;6.60;;
4889;SDS011;2459;42.268;23.112;2022-08-01T02:16:33;9.73;;;7.23;;
4889;SDS011;2459;42.268;23.112;2022-08-01T02:19:02;7.37;;;6.60;;
4889;SDS011;2459;42.268;23.112;2022-08-01T02:21:30;11.27;;;8.20;;
4889;SDS011;2459;42.268;23.112;2022-08-01T02:24:00;9.57;;;7.10;;
4889;SDS011;2459;42.268;23.112;2022-08-01T02:26:29;11.03;;;7.57;;
4889;SDS011;2459;42.268;23.112;2022-08-01T02:28:58;10.60;;;8.00;;
4889;SDS011;2459;42.268;23.112;2022-08-01T02:31:35;9.40;;;6.80;;
4889;SDS011;2459;42.268;23.112;2022-08-01T02:34:03;22.03;;;7.43;;
4889;SDS011;2459;42.268;23.112;2022-08-01T02:36:32;10.00;;;7.73;;
4889;SDS011;2459;42.268;23.112;2022-08-01T02:39:00;16.43;;;9.07;;
4889;SDS011;2459;42.268;23.112;2022-08-01T02:41:30;8.70;;;7.57;;
4889;SDS011;2459;42.268;23.112;2022-08-01T02:43:58;10.23;;;8.07;;
4889;SDS011;2459;42.268;23.112;2022-08-01T02:46:28;9.90;;;7.83;;
4889;SDS011;2459;42.268;23.112;2022-08-01T02:48:58;19.23;;;7.63;;
4889;SDS011;2459;42.268;23.112;2022-08-01T02:51:28;12.10;;;8.67;;
4889;SDS011;2459;42.268;23.112;2022-08-01T02:53:56;11.37;;;6.30;;
4889;SDS011;2459;42.268;23.112;2022-08-01T02:56:24;15.77;;;7.83;;
4889;SDS011;2459;42.268;23.112;2022-08-01T02:59:00;11.20;;;8.23;;
4889;SDS011;2459;42.268;23.112;2022-08-01T03:01:28;17.17;;;7.97;;
4889;SDS011;2459;42.268;23.112;2022-08-01T03:03:55;9.90;;;7.90;;
4889;SDS011;2459;42.268;23.112;2022-08-01T03:06:22;11.43;;;8.37;;
4889;SDS011;2459;42.268;23.112;2022-08-01T03:08:51;10.53;;;8.83;;
4889;SDS011;2459;42.268;23.112;2022-08-01T03:11:19;15.30;;;6.73;;
4889;SDS011;2459;42.268;23.112;2022-08-01T03:13:46;10.73;;;8.00;;
4889;SDS011;2459;42.268;23.112;2022-08-01T03:16:14;12.27;;;7.87;;
4889;SDS011;2459;42.268;23.112;2022-08-01T03:18:41;10.60;;;7.30;;
4889;SDS011;2459;42.268;23.112;2022-08-01T03:21:11;13.70;;;8.17;;
4889;SDS011;2459;42.268;23.112;2022-08-01T03:23:40;12.77;;;8.60;;
4889;SDS011;2459;42.268;23.112;2022-08-01T03:26:09;7.30;;;6.33;;
4889;SDS011;2459;42.268;23.112;2022-08-01T03:28:36;15.30;;;7.90;;
4889;SDS011;2459;42.268;23.112;2022-08-01T03:31:03;13.63;;;7.50;;
4889;SDS011;2459;42.268;23.112;2022-08-01T03:33:31;8.37;;;7.23;;
4889;SDS011;2459;42.268;23.112;2022-08-01T03:35:58;12.30;;;8.50;;
4889;SDS011;2459;42.268;23.112;2022-08-01T03:38:26;14.13;;;7.13;;
4889;SDS011;2459;42.268;23.112;2022-08-01T03:40:54;10.27;;;8.37;;
4889;SDS011;2459;42.268;23.112;2022-08-01T03:43:26;8.13;;;6.57;;
4889;SDS011;2459;42.268;23.112;2022-08-01T03:45:55;8.67;;;7.00;;
4889;SDS011;2459;42.268;23.112;2022-08-01T03:48:29;7.67;;;6.10;;
4889;SDS011;2459;42.268;23.112;2022-08-01T03:50:59;8.63;;;7.10;;
4889;SDS011;2459;42.268;23.112;2022-08-01T03:53:28;7.93;;;7.03;;
4889;SDS011;2459;42.268;23.112;2022-08-01T03:55:56;8.67;;;7.20;;
4889;SDS011;2459;42.268;23.112;2022-08-01T03:58:26;7.00;;;6.27;;
4889;SDS011;2459;42.268;23.112;2022-08-01T04:00:53;9.57;;;7.20;;
4889;SDS011;2459;42.268;23.112;2022-08-01T04:03:20;7.87;;;6.73;;
4889;SDS011;2459;42.268;23.112;2022-08-01T04:05:47;12.10;;;8.67;;
4889;SDS011;2459;42.268;23.112;2022-08-01T04:08:14;12.13;;;9.37;;
4889;SDS011;2459;42.268;23.112;2022-08-01T04:10:41;11.10;;;8.50;;
4889;SDS011;2459;42.268;23.112;2022-08-01T04:13:07;13.03;;;8.07;;
4889;SDS011;2459;42.268;23.112;2022-08-01T04:15:36;9.00;;;8.10;;
4889;SDS011;2459;42.268;23.112;2022-08-01T04:18:02;8.37;;;7.10;;
4889;SDS011;2459;42.268;23.112;2022-08-01T04:20:29;8.17;;;6.77;;
4889;SDS011;2459;42.268;23.112;2022-08-01T04:22:56;19.30;;;6.90;;
4889;SDS011;2459;42.268;23.112;2022-08-01T04:25:24;8.33;;;6.47;;
4889;SDS011;2459;42.268;23.112;2022-08-01T04:27:52;13.67;;;7.40;;
4889;SDS011;2459;42.268;23.112;2022-08-01T04:30:22;11.80;;;5.90;;
4889;SDS011;2459;42.268;23.112;2022-08-01T04:32:52;10.93;;;6.47;;
4889;SDS011;2459;42.268;23.112;2022-08-01T04:35:19;13.43;;;6.83;;
4889;SDS011;2459;42.268;23.112;2022-08-01T04:37:47;8.73;;;6.90;;
4889;SDS011;2459;42.268;23.112;2022-08-01T04:40:16;6.90;;;6.23;;
4889;SDS011;2459;42.268;23.112;2022-08-01T04:42:43;7.77;;;6.40;;
4889;SDS011;2459;42.268;23.112;2022-08-01T04:45:10;12.50;;;5.97;;
4889;SDS011;2459;42.268;23.112;2022-08-01T04:47:37;7.50;;;6.73;;
4889;SDS011;2459;42.268;23.112;2022-08-01T04:50:07;5.60;;;5.10;;
4889;SDS011;2459;42.268;23.112;2022-08-01T04:52:36;13.20;;;4.70;;
4889;SDS011;2459;42.268;23.112;2022-08-01T04:55:04;5.07;;;4.57;;
4889;SDS011;2459;42.268;23.112;2022-08-01T04:57:32;6.80;;;5.40;;
4889;SDS011;2459;42.268;23.112;2022-08-01T05:00:00;7.70;;;5.40;;
4889;SDS011;2459;42.268;23.112;2022-08-01T05:02:27;8.03;;;5.17;;
4889;SDS011;2459;42.268;23.112;2022-08-01T05:04:54;4.30;;;3.73;;
4889;SDS011;2459;42.268;23.112;2022-08-01T05:07:22;4.37;;;3.97;;
4889;SDS011;2459;42.268;23.112;2022-08-01T05:09:49;5.23;;;4.73;;
4889;SDS011;2459;42.268;23.112;2022-08-01T05:12:16;5.70;;;3.83;;
4889;SDS011;2459;42.268;23.112;2022-08-01T05:14:43;8.57;;;4.27;;
4889;SDS011;2459;42.268;23.112;2022-08-01T05:17:11;5.70;;;4.90;;
4889;SDS011;2459;42.268;23.112;2022-08-01T05:19:38;4.40;;;4.00;;
4889;SDS011;2459;42.268;23.112;2022-08-01T05:22:08;3.80;;;3.50;;
4889;SDS011;2459;42.268;23.112;2022-08-01T05:24:37;4.60;;;3.70;;
4889;SDS011;2459;42.268;23.112;2022-08-01T05:27:04;7.57;;;3.17;;
4889;SDS011;2459;42.268;23.112;2022-08-01T05:29:32;3.90;;;3.50;;
4889;SDS011;2459;42.268;23.112;2022-08-01T05:31:59;5.20;;;4.30;;
4889;SDS011;2459;42.268;23.112;2022-08-01T05:34:26;5.37;;;4.40;;
4889;SDS011;2459;42.268;23.112;2022-08-01T05:36:53;6.47;;;4.00;;
4889;SDS011;2459;42.268;23.112;2022-08-01T05:39:20;4.77;;;3.33;;
4889;SDS011;2459;42.268;23.112;2022-08-01T05:41:48;4.07;;;3.70;;
4889;SDS011;2459;42.268;23.112;2022-08-01T05:44:15;9.98;;;3.60;;
4889;SDS011;2459;42.268;23.112;2022-08-01T05:46:42;4.53;;;4.13;;
4889;SDS011;2459;42.268;23.112;2022-08-01T05:49:09;8.50;;;4.22;;
4889;SDS011;2459;42.268;23.112;2022-08-01T05:51:36;5.15;;;3.40;;
4889;SDS011;2459;42.268;23.112;2022-08-01T05:54:02;7.35;;;4.10;;
4889;SDS011;2459;42.268;23.112;2022-08-01T05:56:29;9.48;;;3.97;;
4889;SDS011;2459;42.268;23.112;2022-08-01T05:58:57;5.90;;;4.30;;
4889;SDS011;2459;42.268;23.112;2022-08-01T06:01:24;4.72;;;4.13;;
4889;SDS011;2459;42.268;23.112;2022-08-01T06:03:51;8.98;;;4.60;;
4889;SDS011;2459;42.268;23.112;2022-08-01T06:06:19;5.75;;;3.97;;
4889;SDS011;2459;42.268;23.112;2022-08-01T06:08:46;27.70;;;6.50;;
4889;SDS011;2459;42.268;23.112;2022-08-01T06:11:13;16.15;;;6.85;;
4889;SDS011;2459;42.268;23.112;2022-08-01T06:13:40;11.93;;;4.20;;
4889;SDS011;2459;42.268;23.112;2022-08-01T06:16:08;6.38;;;4.40;;
4889;SDS011;2459;42.268;23.112;2022-08-01T06:18:35;6.15;;;4.60;;
4889;SDS011;2459;42.268;23.112;2022-08-01T06:21:01;9.88;;;4.40;;
4889;SDS011;2459;42.268;23.112;2022-08-01T06:23:28;11.07;;;4.57;;
4889;SDS011;2459;42.268;23.112;2022-08-01T06:25:55;11.23;;;4.18;;
4889;SDS011;2459;42.268;23.112;2022-08-01T06:28:23;6.20;;;3.75;;
4889;SDS011;2459;42.268;23.112;2022-08-01T06:30:49;6.88;;;4.72;;
4889;SDS011;2459;42.268;23.112;2022-08-01T06:33:18;5.90;;;4.15;;
4889;SDS011;2459;42.268;23.112;2022-08-01T06:35:44;7.65;;;4.22;;
4889;SDS011;2459;42.268;23.112;2022-08-01T06:38:11;9.40;;;4.45;;
4889;SDS011;2459;42.268;23.112;2022-08-01T06:40:38;13.68;;;5.15;;
4889;SDS011;2459;42.268;23.112;2022-08-01T06:43:05;16.23;;;4.25;;
4889;SDS011;2459;42.268;23.112;2022-08-01T06:45:31;17.85;;;5.03;;
4889;SDS011;2459;42.268;23.112;2022-08-01T06:47:58;16.67;;;3.50;;
4889;SDS011;2459;42.268;23.112;2022-08-01T06:50:26;10.45;;;2.90;;
4889;SDS011;2459;42.268;23.112;2022-08-01T06:52:53;5.97;;;2.00;;
4889;SDS011;2459;42.268;23.112;2022-08-01T06:55:20;2.50;;;2.10;;
4889;SDS011;2459;42.268;23.112;2022-08-01T06:57:47;11.05;;;3.40;;
4889;SDS011;2459;42.268;23.112;2022-08-01T07:00:15;4.35;;;2.63;;
4889;SDS011;2459;42.268;23.112;2022-08-01T07:02:44;2.88;;;2.65;;
4889;SDS011;2459;42.268;23.112;2022-08-01T07:05:11;4.57;;;4.13;;
4889;SDS011;2459;42.268;23.112;2022-08-01T07:07:39;2.53;;;2.28;;
4889;SDS011;2459;42.268;23.112;2022-08-01T07:10:06;2.22;;;1.77;;
4889;SDS011;2459;42.268;23.112;2022-08-01T07:12:34;1.60;;;1.50;;
4889;SDS011;2459;42.268;23.112;2022-08-01T07:15:02;5.57;;;1.85;;
4889;SDS011;2459;42.268;23.112;2022-08-01T07:17:29;1.40;;;1.40;;
4889;SDS011;2459;42.268;23.112;2022-08-01T07:19:56;3.90;;;1.75;;
4889;SDS011;2459;42.268;23.112;2022-08-01T07:22:22;2.72;;;2.13;;
4889;SDS011;2459;42.268;23.112;2022-08-01T07:24:50;1.67;;;1.58;;
4889;SDS011;2459;42.268;23.112;2022-08-01T07:27:17;1.95;;;1.80;;
4889;SDS011;2459;42.268;23.112;2022-08-01T07:29:44;1.70;;;1.60;;
4889;SDS011;2459;42.268;23.112;2022-08-01T07:32:11;1.75;;;1.65;;
4889;SDS011;2459;42.268;23.112;2022-08-01T07:34:37;1.08;;;1.00;;
4889;SDS011;2459;42.268;23.112;2022-08-01T07:37:06;1.70;;;1.60;;
4889;SDS011;2459;42.268;23.112;2022-08-01T07:39:38;6.53;;;1.52;;
4889;SDS011;2459;42.268;23.112;2022-08-01T07:42:06;5.75;;;1.70;;
4889;SDS011;2459;42.268;23.112;2022-08-01T07:44:33;2.35;;;1.73;;
4889;SDS011;2459;42.268;23.112;2022-08-01T07:47:00;2.75;;;2.00;;
4889;SDS011;2459;42.268;23.112;2022-08-01T07:49:27;1.75;;;1.65;;
4889;SDS011;2459;42.268;23.112;2022-08-01T07:51:54;2.13;;;1.95;;
4889;SDS011;2459;42.268;23.112;2022-08-01T07:54:21;1.50;;;1.33;;
4889;SDS011;2459;42.268;23.112;2022-08-01T07:56:48;2.13;;;1.83;;
4889;SDS011;2459;42.268;23.112;2022-08-01T07:59:17;5.18;;;1.67;;
4889;SDS011;2459;42.268;23.112;2022-08-01T08:01:47;6.20;;;1.40;;
4889;SDS011;2459;42.268;23.112;2022-08-01T08:04:14;1.90;;;1.80;;
4889;SDS011;2459;42.268;23.112;2022-08-01T08:06:41;2.05;;;1.95;;
4889;SDS011;2459;42.268;23.112;2022-08-01T08:09:08;5.15;;;3.00;;
4889;SDS011;2459;42.268;23.112;2022-08-01T08:11:35;2.22;;;1.85;;
4889;SDS011;2459;42.268;23.112;2022-08-01T08:14:02;1.88;;;1.77;;
4889;SDS011;2459;42.268;23.112;2022-08-01T08:16:31;2.03;;;1.92;;
4889;SDS011;2459;42.268;23.112;2022-08-01T08:18:59;3.17;;;2.80;;
4889;SDS011;2459;42.268;23.112;2022-08-01T08:21:29;2.22;;;2.13;;
4889;SDS011;2459;42.268;23.112;2022-08-01T08:23:56;3.05;;;2.33;;
4889;SDS011;2459;42.268;23.112;2022-08-01T08:26:41;1.95;;;1.77;;
4889;SDS011;2459;42.268;23.112;2022-08-01T08:29:07;2.20;;;2.00;;
4889;SDS011;2459;42.268;23.112;2022-08-01T08:31:35;1.85;;;1.75;;
4889;SDS011;2459;42.268;23.112;2022-08-01T08:34:02;2.17;;;1.98;;
4889;SDS011;2459;42.268;23.112;2022-08-01T08:36:29;2.35;;;1.80;;
4889;SDS011;2459;42.268;23.112;2022-08-01T08:38:56;1.42;;;1.33;;
4889;SDS011;2459;42.268;23.112;2022-08-01T08:41:25;1.38;;;1.27;;
4889;SDS011;2459;42.268;23.112;2022-08-01T08:43:52;3.53;;;1.30;;
4889;SDS011;2459;42.268;23.112;2022-08-01T08:46:19;1.40;;;1.20;;
4889;SDS011;2459;42.268;23.112;2022-08-01T08:48:48;1.38;;;1.30;;
4889;SDS011;2459;42.268;23.112;2022-08-01T08:51:16;1.10;;;1.10;;
4889;SDS011;2459;42.268;23.112;2022-08-01T08:53:45;1.58;;;1.38;;
4889;SDS011;2459;42.268;23.112;2022-08-01T08:56:20;1.17;;;1.17;;
4889;SDS011;2459;42.268;23.112;2022-08-01T08:58:47;9.27;;;1.92;;
4889;SDS011;2459;42.268;23.112;2022-08-01T09:01:16;1.58;;;1.20;;
4889;SDS011;2459;42.268;23.112;2022-08-01T09:03:43;1.45;;;1.27;;
4889;SDS011;2459;42.268;23.112;2022-08-01T09:06:11;1.45;;;1.35;;
4889;SDS011;2459;42.268;23.112;2022-08-01T09:08:39;1.88;;;1.75;;
4889;SDS011;2459;42.268;23.112;2022-08-01T09:11:06;1.15;;;1.05;;
4889;SDS011;2459;42.268;23.112;2022-08-01T09:13:32;1.63;;;1.45;;
4889;SDS011;2459;42.268;23.112;2022-08-01T09:15:59;1.85;;;1.75;;
4889;SDS011;2459;42.268;23.112;2022-08-01T09:18:27;2.50;;;2.17;;
4889;SDS011;2459;42.268;23.112;2022-08-01T09:21:08;1.98;;;1.88;;
4889;SDS011;2459;42.268;23.112;2022-08-01T09:23:38;1.55;;;1.55;;
4889;SDS011;2459;42.268;23.112;2022-08-01T09:26:07;1.83;;;1.73;;
4889;SDS011;2459;42.268;23.112;2022-08-01T09:28:34;2.15;;;1.80;;
4889;SDS011;2459;42.268;23.112;2022-08-01T09:31:05;2.03;;;1.75;;
4889;SDS011;2459;42.268;23.112;2022-08-01T09:33:46;1.55;;;1.45;;
4889;SDS011;2459;42.268;23.112;2022-08-01T09:36:14;2.00;;;1.90;;
4889;SDS011;2459;42.268;23.112;2022-08-01T09:38:42;2.40;;;2.20;;
4889;SDS011;2459;42.268;23.112;2022-08-01T09:41:08;2.37;;;2.17;;
4889;SDS011;2459;42.268;23.112;2022-08-01T09:43:36;5.23;;;1.70;;
4889;SDS011;2459;42.268;23.112;2022-08-01T09:46:04;4.95;;;1.90;;
4889;SDS011;2459;42.268;23.112;2022-08-01T09:48:31;2.13;;;1.92;;
4889;SDS011;2459;42.268;23.112;2022-08-01T09:50:59;3.38;;;2.20;;
4889;SDS011;2459;42.268;23.112;2022-08-01T09:53:26;8.27;;;2.05;;
4889;SDS011;2459;42.268;23.112;2022-08-01T09:55:54;1.95;;;1.80;;
4889;SDS011;2459;42.268;23.112;2022-08-01T09:58:21;1.85;;;1.65;;
4889;SDS011;2459;42.268;23.112;2022-08-01T10:00:57;1.90;;;1.80;;
4889;SDS011;2459;42.268;23.112;2022-08-01T10:03:25;4.57;;;2.03;;
4889;SDS011;2459;42.268;23.112;2022-08-01T10:05:54;2.73;;;2.30;;
4889;SDS011;2459;42.268;23.112;2022-08-01T10:08:22;1.77;;;1.50;;
4889;SDS011;2459;42.268;23.112;2022-08-01T10:13:34;1.83;;;1.73;;
4889;SDS011;2459;42.268;23.112;2022-08-01T10:16:01;1.50;;;1.40;;
4889;SDS011;2459;42.268;23.112;2022-08-01T10:18:29;2.33;;;2.13;;
4889;SDS011;2459;42.268;23.112;2022-08-01T10:20:58;1.90;;;1.80;;
4889;SDS011;2459;42.268;23.112;2022-08-01T10:23:26;2.45;;;2.25;;
4889;SDS011;2459;42.268;23.112;2022-08-01T10:25:53;1.80;;;1.70;;
4889;SDS011;2459;42.268;23.112;2022-08-01T10:28:21;2.03;;;1.83;;
4889;SDS011;2459;42.268;23.112;2022-08-01T10:30:49;1.65;;;1.55;;
4889;SDS011;2459;42.268;23.112;2022-08-01T10:33:16;4.32;;;3.72;;
4889;SDS011;2459;42.268;23.112;2022-08-01T10:35:44;3.80;;;3.28;;
4889;SDS011;2459;42.268;23.112;2022-08-01T10:38:11;1.60;;;1.50;;
4889;SDS011;2459;42.268;23.112;2022-08-01T10:40:39;8.10;;;3.35;;
4889;SDS011;2459;42.268;23.112;2022-08-01T10:43:06;1.20;;;1.20;;
4889;SDS011;2459;42.268;23.112;2022-08-01T10:45:34;1.95;;;1.85;;
4889;SDS011;2459;42.268;23.112;2022-08-01T10:48:03;1.50;;;1.50;;
4889;SDS011;2459;42.268;23.112;2022-08-01T10:50:33;3.30;;;1.50;;
4889;SDS011;2459;42.268;23.112;2022-08-01T10:53:03;1.25;;;1.25;;
4889;SDS011;2459;42.268;23.112;2022-08-01T10:55:44;1.48;;;1.38;;
4889;SDS011;2459;42.268;23.112;2022-08-01T10:58:12;1.30;;;1.15;;
4889;SDS011;2459;42.268;23.112;2022-08-01T11:00:40;1.33;;;1.23;;
4889;SDS011;2459;42.268;23.112;2022-08-01T11:03:07;1.65;;;1.55;;
4889;SDS011;2459;42.268;23.112;2022-08-01T11:05:34;1.52;;;1.42;;
4889;SDS011;2459;42.268;23.112;2022-08-01T11:08:02;2.78;;;2.45;;
4889;SDS011;2459;42.268;23.112;2022-08-01T11:10:32;1.70;;;1.60;;
4889;SDS011;2459;42.268;23.112;2022-08-01T11:13:03;1.30;;;1.30;;
4889;SDS011;2459;42.268;23.112;2022-08-01T11:15:32;2.00;;;1.85;;
4889;SDS011;2459;42.268;23.112;2022-08-01T11:18:01;1.50;;;1.42;;
4889;SDS011;2459;42.268;23.112;2022-08-01T11:20:29;1.17;;;1.15;;
4889;SDS011;2459;42.268;23.112;2022-08-01T11:26:12;3.13;;;0.90;;
4889;SDS011;2459;42.268;23.112;2022-08-01T11:28:40;1.60;;;1.50;;
4889;SDS011;2459;42.268;23.112;2022-08-01T11:31:24;1.50;;;1.00;;
4889;SDS011;2459;42.268;23.112;2022-08-01T11:33:53;2.78;;;1.10;;
4889;SDS011;2459;42.268;23.112;2022-08-01T11:36:20;1.20;;;1.10;;
4889;SDS011;2459;42.268;23.112;2022-08-01T11:38:48;1.20;;;1.10;;
4889;SDS011;2459;42.268;23.112;2022-08-01T11:41:16;2.47;;;1.17;;
4889;SDS011;2459;42.268;23.112;2022-08-01T11:43:56;1.55;;;1.45;;
4889;SDS011;2459;42.268;23.112;2022-08-01T11:49:27;2.00;;;1.30;;
4889;SDS011;2459;42.268;23.112;2022-08-01T11:52:11;2.20;;;2.05;;
4889;SDS011;2459;42.268;23.112;2022-08-01T11:54:40;1.80;;;1.70;;
4889;SDS011;2459;42.268;23.112;2022-08-01T11:57:08;2.15;;;1.95;;
4889;SDS011;2459;42.268;23.112;2022-08-01T11:59:37;10.43;;;1.40;;
4889;SDS011;2459;42.268;23.112;2022-08-01T12:02:14;1.40;;;1.30;;
4889;SDS011;2459;42.268;23.112;2022-08-01T12:04:47;2.97;;;1.95;;
4889;SDS011;2459;42.268;23.112;2022-08-01T12:07:15;1.98;;;1.88;;
4889;SDS011;2459;42.268;23.112;2022-08-01T12:09:42;2.00;;;1.80;;
4889;SDS011;2459;42.268;23.112;2022-08-01T12:12:09;3.40;;;2.20;;
4889;SDS011;2459;42.268;23.112;2022-08-01T12:14:36;1.42;;;1.33;;
4889;SDS011;2459;42.268;23.112;2022-08-01T12:17:03;1.67;;;1.58;;
4889;SDS011;2459;42.268;23.112;2022-08-01T12:19:30;2.00;;;1.88;;
4889;SDS011;2459;42.268;23.112;2022-08-01T12:22:08;1.33;;;1.23;;
4889;SDS011;2459;42.268;23.112;2022-08-01T12:24:36;6.53;;;1.63;;
4889;SDS011;2459;42.268;23.112;2022-08-01T12:27:08;3.03;;;2.73;;
4889;SDS011;2459;42.268;23.112;2022-08-01T12:29:36;1.85;;;1.75;;
4889;SDS011;2459;42.268;23.112;2022-08-01T12:32:04;1.10;;;1.10;;
4889;SDS011;2459;42.268;23.112;2022-08-01T12:34:47;1.50;;;1.40;;
4889;SDS011;2459;42.268;23.112;2022-08-01T12:37:16;1.73;;;1.27;;
4889;SDS011;2459;42.268;23.112;2022-08-01T12:39:43;3.33;;;1.30;;
4889;SDS011;2459;42.268;23.112;2022-08-01T12:42:11;1.40;;;1.40;;
4889;SDS011;2459;42.268;23.112;2022-08-01T12:44:38;1.73;;;1.63;;
4889;SDS011;2459;42.268;23.112;2022-08-01T12:47:05;3.07;;;2.13;;
4889;SDS011;2459;42.268;23.112;2022-08-01T12:49:32;3.72;;;2.00;;
4889;SDS011;2459;42.268;23.112;2022-08-01T12:52:00;3.00;;;1.70;;
4889;SDS011;2459;42.268;23.112;2022-08-01T12:54:28;5.25;;;4.35;;
4889;SDS011;2459;42.268;23.112;2022-08-01T12:56:55;1.70;;;1.60;;
4889;SDS011;2459;42.268;23.112;2022-08-01T12:59:24;1.70;;;1.60;;
4889;SDS011;2459;42.268;23.112;2022-08-01T13:01:52;1.67;;;1.58;;
4889;SDS011;2459;42.268;23.112;2022-08-01T13:04:19;1.98;;;1.83;;
4889;SDS011;2459;42.268;23.112;2022-08-01T13:06:46;2.40;;;1.95;;
4889;SDS011;2459;42.268;23.112;2022-08-01T13:09:13;1.65;;;1.27;;
4889;SDS011;2459;42.268;23.112;2022-08-01T13:11:42;1.73;;;1.63;;
4889;SDS011;2459;42.268;23.112;2022-08-01T13:14:11;3.28;;;2.97;;
4889;SDS011;2459;42.268;23.112;2022-08-01T13:16:52;2.67;;;2.17;;
4889;SDS011;2459;42.268;23.112;2022-08-01T13:19:19;2.20;;;2.10;;
4889;SDS011;2459;42.268;23.112;2022-08-01T13:21:56;1.45;;;1.38;;
4889;SDS011;2459;42.268;23.112;2022-08-01T13:24:24;2.40;;;2.20;;
4889;SDS011;2459;42.268;23.112;2022-08-01T13:26:53;1.60;;;1.50;;
4889;SDS011;2459;42.268;23.112;2022-08-01T13:29:29;2.00;;;1.90;;
4889;SDS011;2459;42.268;23.112;2022-08-01T13:31:56;1.98;;;1.88;;
4889;SDS011;2459;42.268;23.112;2022-08-01T13:34:30;4.43;;;2.72;;
4889;SDS011;2459;42.268;23.112;2022-08-01T13:36:58;2.28;;;2.17;;
4889;SDS011;2459;42.268;23.112;2022-08-01T13:39:26;2.90;;;2.65;;
4889;SDS011;2459;42.268;23.112;2022-08-01T13:42:11;6.80;;;2.55;;
4889;SDS011;2459;42.268;23.112;2022-08-01T13:44:39;2.25;;;2.10;;
4889;SDS011;2459;42.268;23.112;2022-08-01T13:47:06;2.88;;;2.10;;
4889;SDS011;2459;42.268;23.112;2022-08-01T13:49:33;2.08;;;1.98;;
4889;SDS011;2459;42.268;23.112;2022-08-01T13:52:00;2.90;;;2.70;;
4889;SDS011;2459;42.268;23.112;2022-08-01T13:54:27;1.98;;;1.88;;
4889;SDS011;2459;42.268;23.112;2022-08-01T13:56:54;2.15;;;2.05;;
4889;SDS011;2459;42.268;23.112;2022-08-01T13:59:22;2.83;;;2.63;;
4889;SDS011;2459;42.268;23.112;2022-08-01T14:01:49;2.47;;;2.30;;
4889;SDS011;2459;42.268;23.112;2022-08-01T14:04:15;6.38;;;3.58;;
4889;SDS011;2459;42.268;23.112;2022-08-01T14:06:42;2.70;;;2.20;;
4889;SDS011;2459;42.268;23.112;2022-08-01T14:09:09;2.63;;;2.38;;
4889;SDS011;2459;42.268;23.112;2022-08-01T14:11:36;3.08;;;2.40;;
4889;SDS011;2459;42.268;23.112;2022-08-01T14:14:03;2.08;;;1.83;;
4889;SDS011;2459;42.268;23.112;2022-08-01T14:16:31;1.80;;;1.70;;
4889;SDS011;2459;42.268;23.112;2022-08-01T14:18:57;3.08;;;2.50;;
4889;SDS011;2459;42.268;23.112;2022-08-01T14:21:24;2.78;;;2.58;;
4889;SDS011;2459;42.268;23.112;2022-08-01T14:23:51;2.47;;;2.38;;
4889;SDS011;2459;42.268;23.112;2022-08-01T14:26:22;2.65;;;2.45;;
4889;SDS011;2459;42.268;23.112;2022-08-01T14:28:50;2.40;;;2.20;;
4889;SDS011;2459;42.268;23.112;2022-08-01T14:31:17;2.20;;;2.10;;
4889;SDS011;2459;42.268;23.112;2022-08-01T14:33:45;2.50;;;2.08;;
4889;SDS011;2459;42.268;23.112;2022-08-01T14:36:12;3.13;;;2.50;;
4889;SDS011;2459;42.268;23.112;2022-08-01T14:38:39;2.63;;;2.47;;
4889;SDS011;2459;42.268;23.112;2022-08-01T14:41:05;2.38;;;2.28;;
4889;SDS011;2459;42.268;23.112;2022-08-01T14:43:32;2.72;;;2.50;;
4889;SDS011;2459;42.268;23.112;2022-08-01T14:45:59;2.55;;;1.60;;
4889;SDS011;2459;42.268;23.112;2022-08-01T14:48:26;2.00;;;1.90;;
4889;SDS011;2459;42.268;23.112;2022-08-01T14:50:54;1.80;;;1.70;;
4889;SDS011;2459;42.268;23.112;2022-08-01T14:53:21;1.70;;;1.60;;
4889;SDS011;2459;42.268;23.112;2022-08-01T14:55:47;2.00;;;1.90;;
4889;SDS011;2459;42.268;23.112;2022-08-01T14:58:14;2.85;;;1.95;;
4889;SDS011;2459;42.268;23.112;2022-08-01T15:00:41;2.20;;;2.10;;
4889;SDS011;2459;42.268;23.112;2022-08-01T15:03:08;1.60;;;1.50;;
4889;SDS011;2459;42.268;23.112;2022-08-01T15:05:34;1.87;;;1.77;;
4889;SDS011;2459;42.268;23.112;2022-08-01T15:08:03;2.35;;;2.20;;
4889;SDS011;2459;42.268;23.112;2022-08-01T15:10:30;1.60;;;1.50;;
4889;SDS011;2459;42.268;23.112;2022-08-01T15:12:58;2.15;;;2.03;;
4889;SDS011;2459;42.268;23.112;2022-08-01T15:15:26;1.88;;;1.77;;